createdAt,value
2024-04-11T00:02:53.659Z,102494.84
2024-04-11T00:07:59.495Z,102491.98
2024-04-11T00:13:05.353Z,102488.42
2024-04-11T00:18:11.015Z,102489.30
2024-04-11T00:23:21.333Z,102486.93
2024-04-11T00:28:28.256Z,102486.45
2024-04-11T00:33:34.153Z,102486.93
2024-04-11T00:38:41.717Z,102491.83
2024-04-11T00:43:48.925Z,102491.78
2024-04-11T00:48:56.626Z,102488.27
2024-04-11T00:54:03.917Z,102495.34
2024-04-11T00:59:16.031Z,102495.17
2024-04-11T01:04:23.437Z,102490.70
2024-04-11T01:09:29.092Z,102489.22
2024-04-11T01:14:35.742Z,102481.73
2024-04-11T01:19:42.206Z,102490.23
2024-04-11T01:24:47.861Z,102485.70
2024-04-11T01:29:53.766Z,102483.45
2024-04-11T01:35:01.054Z,102489.09
2024-04-11T01:40:09.635Z,102483.69
2024-04-11T01:45:16.468Z,102482.26
2024-04-11T01:50:24.344Z,102483.58
2024-04-11T01:55:29.917Z,102477.81
2024-04-11T02:00:37.532Z,102482.33
2024-04-11T02:05:43.722Z,102477.93
2024-04-11T02:10:49.377Z,102488.98
2024-04-11T02:15:55.701Z,102490.23
2024-04-11T02:21:01.272Z,102484.25
2024-04-11T02:26:07.096Z,102485.91
2024-04-11T02:31:14.012Z,102487.14
2024-04-11T02:36:20.155Z,102485.76
2024-04-11T02:41:26.153Z,102484.34
2024-04-11T02:46:31.822Z,102493.25
2024-04-11T02:51:38.966Z,102485.65
2024-04-11T02:56:44.648Z,102483.81
2024-04-11T03:01:52.807Z,102484.74
2024-04-11T03:06:57.726Z,102486.95
2024-04-11T03:12:03.812Z,102475.87
2024-04-11T03:17:09.394Z,102472.83
2024-04-11T03:22:15.487Z,102473.70
2024-04-11T03:27:21.038Z,102480.74
2024-04-11T03:32:28.305Z,102467.41
2024-04-11T03:37:35.035Z,102467.88
2024-04-11T03:42:40.601Z,102474.50
2024-04-11T03:47:46.290Z,102462.99
2024-04-11T03:52:52.459Z,102472.69
2024-04-11T03:57:59.645Z,102473.06
2024-04-11T04:03:05.598Z,102471.48
2024-04-11T04:08:11.466Z,102474.61
2024-04-11T04:13:17.065Z,102479.80
2024-04-11T04:18:23.278Z,102485.48
2024-04-11T04:23:29.305Z,102482.82
2024-04-11T04:28:36.876Z,102481.82
2024-04-11T04:33:44.246Z,102485.09
2024-04-11T04:38:51.506Z,102493.98
2024-04-11T04:43:58.958Z,102498.13
2024-04-11T04:49:12.869Z,102499.64
2024-04-11T04:54:19.186Z,102488.77
2024-04-11T04:59:25.416Z,102483.61
2024-04-11T05:04:32.788Z,102487.68
2024-04-11T05:09:39.070Z,102487.42
2024-04-11T05:14:46.442Z,102485.00
2024-04-11T05:19:52.892Z,102491.00
2024-04-11T05:24:59.342Z,102476.41
2024-04-11T05:30:07.023Z,102475.15
2024-04-11T05:35:13.017Z,102475.28
2024-04-11T05:40:19.218Z,102473.59
2024-04-11T05:45:25.184Z,102475.23
2024-04-11T05:50:30.783Z,102467.98
2024-04-11T05:55:36.526Z,102467.37
2024-04-11T06:00:45.168Z,102467.08
2024-04-11T06:05:52.538Z,102477.81
2024-04-11T06:10:58.589Z,102469.27
2024-04-11T06:16:05.304Z,102468.75
2024-04-11T06:21:12.607Z,102474.33
2024-04-11T06:26:18.486Z,102479.11
2024-04-11T06:31:29.407Z,102472.23
2024-04-11T06:36:34.970Z,102467.28
2024-04-11T06:41:41.211Z,102458.25
2024-04-11T06:46:48.496Z,102459.47
2024-04-11T06:51:54.559Z,102458.61
2024-04-11T06:57:00.312Z,102458.86
2024-04-11T07:02:07.831Z,102459.14
2024-04-11T07:07:13.506Z,102470.98
2024-04-11T07:12:20.916Z,102467.00
2024-04-11T07:17:29.906Z,102469.43
2024-04-11T07:22:37.236Z,102461.16
2024-04-11T07:27:42.909Z,102452.24
2024-04-11T07:32:48.993Z,102451.34
2024-04-11T07:38:00.457Z,102432.85
2024-04-11T07:43:10.707Z,102443.33
2024-04-11T07:48:20.187Z,102445.72
2024-04-11T07:53:26.505Z,102450.77
2024-04-11T07:58:32.362Z,102443.52
2024-04-11T08:03:38.848Z,102444.55
2024-04-11T08:08:44.871Z,102443.45
2024-04-11T08:13:50.907Z,102443.02
2024-04-11T08:18:56.580Z,102442.45
2024-04-11T08:24:02.480Z,102453.69
2024-04-11T08:29:08.250Z,102443.46
2024-04-11T08:34:14.009Z,102445.92
2024-04-11T08:39:19.656Z,102451.33
2024-04-11T08:44:27.039Z,102452.33
2024-04-11T08:49:32.921Z,102459.81
2024-04-11T08:54:41.162Z,102451.00
2024-04-11T08:59:48.261Z,102448.66
2024-04-11T09:05:03.840Z,102451.79
2024-04-11T09:10:03.997Z,102459.53
2024-04-11T09:15:13.233Z,102461.25
2024-04-11T09:20:21.081Z,102466.09
2024-04-11T09:25:31.616Z,102471.28
2024-04-11T09:30:39.060Z,102475.00
2024-04-11T09:35:48.427Z,102473.31
2024-04-11T09:40:57.543Z,102471.07
2024-04-11T09:46:07.927Z,102466.77
2024-04-11T09:51:16.925Z,102480.75
2024-04-11T09:56:24.870Z,102481.95
2024-04-11T10:01:32.155Z,102482.05
2024-04-11T10:06:41.700Z,102482.73
2024-04-11T10:11:50.665Z,102474.88
2024-04-11T10:17:01.161Z,102465.34
2024-04-11T10:22:08.509Z,102470.63
2024-04-11T10:27:22.042Z,102472.13
2024-04-11T10:32:31.911Z,102476.08
2024-04-11T10:37:42.312Z,102462.16
2024-04-11T10:42:56.330Z,102462.77
2024-04-11T10:48:03.748Z,102455.40
2024-04-11T10:53:11.030Z,102447.66
2024-04-11T10:58:18.268Z,102447.41
2024-04-11T11:03:27.682Z,102456.19
2024-04-11T11:08:35.290Z,102453.23
2024-04-11T11:13:48.596Z,102452.98
2024-04-11T11:18:54.434Z,102455.70
2024-04-11T11:24:02.532Z,102459.81
2024-04-11T11:29:10.617Z,102455.98
2024-04-11T11:34:16.482Z,102460.07
2024-04-11T11:39:25.945Z,102449.30
2024-04-11T11:44:33.758Z,102457.02
2024-04-11T11:49:40.445Z,102457.01
2024-04-11T11:54:46.026Z,102454.33
2024-04-11T11:59:53.438Z,102452.02
2024-04-11T12:05:00.749Z,102452.16
2024-04-11T12:10:11.510Z,102448.47
2024-04-11T12:15:17.811Z,102452.66
2024-04-11T12:20:25.319Z,102444.74
2024-04-11T12:25:32.237Z,102449.06
2024-04-11T12:30:39.417Z,102438.87
2024-04-11T12:35:50.248Z,102428.49
2024-04-11T12:40:56.050Z,102436.48
2024-04-11T12:46:02.080Z,102441.36
2024-04-11T12:51:08.097Z,102430.46
2024-04-11T12:56:13.886Z,102444.20
2024-04-11T13:01:19.741Z,102436.86
2024-04-11T13:06:31.055Z,102435.53
2024-04-11T13:11:39.697Z,102439.77
2024-04-11T13:16:47.708Z,102432.28
2024-04-11T13:22:05.146Z,102430.65
2024-04-11T13:27:15.942Z,102432.23
2024-04-11T13:32:22.796Z,102424.52
2024-04-11T13:37:30.861Z,102449.69
2024-04-11T13:42:36.516Z,102440.89
2024-04-11T13:47:44.132Z,102428.98
2024-04-11T13:52:51.456Z,102424.70
2024-04-11T13:57:58.053Z,102427.13
2024-04-11T14:03:05.342Z,102413.48
2024-04-11T14:08:11.824Z,102398.44
2024-04-11T14:13:17.484Z,102397.02
2024-04-11T14:18:24.824Z,102401.38
2024-04-11T14:23:48.338Z,102397.43
2024-04-11T14:28:55.840Z,102395.66
2024-04-11T14:34:03.127Z,102398.91
2024-04-11T14:39:08.897Z,102396.45
2024-04-11T14:44:16.203Z,102396.81
2024-04-11T14:49:22.035Z,102394.17
2024-04-11T14:54:28.756Z,102372.59
2024-04-11T14:59:37.013Z,102382.81
2024-04-11T15:04:43.689Z,102386.11
2024-04-11T15:09:51.172Z,102386.02
2024-04-11T15:15:00.429Z,102389.19
2024-04-11T15:20:14.174Z,102392.17
2024-04-11T15:25:21.482Z,102389.52
2024-04-11T15:30:45.979Z,102389.70
2024-04-11T15:35:51.788Z,102381.67
2024-04-11T15:40:58.722Z,102359.86
2024-04-11T15:46:12.217Z,102352.24
2024-04-11T15:51:18.317Z,102343.28
2024-04-11T15:56:31.960Z,102341.93
2024-04-11T16:01:42.080Z,102339.20
2024-04-11T16:06:47.890Z,102359.46
2024-04-11T16:11:55.372Z,102369.81
2024-04-11T16:17:02.950Z,102373.39
2024-04-11T16:22:10.327Z,102377.83
2024-04-11T16:27:15.963Z,102389.72
2024-04-11T16:32:21.603Z,102383.64
2024-04-11T16:37:28.055Z,102376.10
2024-04-11T16:42:38.089Z,102381.12
2024-04-11T16:47:51.435Z,102375.38
2024-04-11T16:52:58.064Z,102386.79
2024-04-11T16:58:06.963Z,102379.73
2024-04-11T17:03:18.985Z,102381.83
2024-04-11T17:08:23.333Z,102389.13
2024-04-11T17:13:30.728Z,102390.38
2024-04-11T17:18:38.272Z,102387.81
2024-04-11T17:23:45.694Z,102399.25
2024-04-11T17:28:53.159Z,102393.23
2024-04-11T17:34:00.281Z,102392.44
2024-04-11T17:39:07.926Z,102396.03
2024-04-11T17:44:14.174Z,102389.56
2024-04-11T17:49:21.459Z,102399.95
2024-04-11T17:54:29.677Z,102395.77
2024-04-11T17:59:37.035Z,102405.83
2024-04-11T18:04:46.042Z,102414.15
2024-04-11T18:09:53.235Z,102418.68
2024-04-11T18:15:00.577Z,102417.92
2024-04-11T18:20:08.672Z,102418.06
2024-04-11T18:25:15.974Z,102417.47
2024-04-11T18:30:23.282Z,102426.47
2024-04-11T18:35:29.485Z,102424.29
2024-04-11T18:40:36.883Z,102427.62
2024-04-11T18:45:45.606Z,102430.35
2024-04-11T18:50:51.818Z,102452.39
2024-04-11T18:55:59.311Z,102458.11
2024-04-11T19:01:06.734Z,102452.53
2024-04-11T19:06:18.871Z,102452.53
2024-04-11T19:11:27.829Z,102456.78
2024-04-11T19:16:35.073Z,102454.97
2024-04-11T19:21:41.647Z,102463.98
2024-04-11T19:26:49.044Z,102461.03
2024-04-11T19:31:54.831Z,102465.97
2024-04-11T19:37:04.489Z,102465.23
2024-04-11T19:42:11.577Z,102466.74
2024-04-11T19:47:19.882Z,102481.89
2024-04-11T19:52:26.625Z,102479.46
2024-04-11T19:57:33.606Z,102481.08
2024-04-11T20:02:39.445Z,102483.70
2024-04-11T20:07:46.519Z,102495.68
2024-04-11T20:12:55.431Z,102496.05
2024-04-11T20:18:01.453Z,102495.84
2024-04-11T20:23:09.620Z,102483.80
2024-04-11T20:28:16.983Z,102476.98
2024-04-11T20:33:23.790Z,102479.14
2024-04-11T20:38:30.909Z,102488.64
2024-04-11T20:43:41.208Z,102491.27
2024-04-11T20:48:54.784Z,102492.20
2024-04-11T20:54:18.453Z,102491.66
2024-04-11T20:59:42.025Z,102495.70
2024-04-11T21:04:49.316Z,102500.28
2024-04-11T21:10:13.439Z,102510.45
2024-04-11T21:15:37.145Z,102512.53
2024-04-11T21:21:01.032Z,102514.35
2024-04-11T21:26:28.962Z,102507.62
2024-04-11T21:31:52.847Z,102506.47
2024-04-11T21:37:00.739Z,102504.24
2024-04-11T21:42:11.291Z,102502.32
2024-04-11T21:47:17.289Z,102502.79
2024-04-11T21:52:22.958Z,102500.67
2024-04-11T21:57:28.771Z,102512.22
2024-04-11T22:02:34.696Z,102513.43
2024-04-11T22:07:42.311Z,102508.37
2024-04-11T22:12:47.966Z,102508.91
2024-04-11T22:17:54.006Z,102493.70
2024-04-11T22:23:01.474Z,102486.55
2024-04-11T22:28:08.973Z,102484.03
2024-04-11T22:33:16.303Z,102488.08
2024-04-11T22:38:21.945Z,102495.77
2024-04-11T22:43:29.180Z,102493.61
2024-04-11T22:48:37.183Z,102495.02
2024-04-11T22:53:44.595Z,102487.48
2024-04-11T22:58:53.630Z,102489.84
2024-04-11T23:03:59.656Z,102494.09
2024-04-11T23:09:07.182Z,102497.80
2024-04-11T23:14:12.878Z,102490.56
2024-04-11T23:19:22.650Z,102493.27
2024-04-11T23:24:29.445Z,102504.53
2024-04-11T23:29:36.168Z,102503.46
2024-04-11T23:34:43.432Z,102509.02
2024-04-11T23:39:50.642Z,102508.01
2024-04-11T23:44:56.491Z,102510.02
2024-04-11T23:50:04.545Z,102496.56
2024-04-11T23:55:10.425Z,102498.78
